sensor_id;sensor_type;location;lat;lon;timestamp;P1;durP1;ratioP1;P2;durP2;ratioP2
4317;SDS011;2172;53.576;9.934;2023-08-06T00:01:46;5.97;;;4.57;;
4317;SDS011;2172;53.576;9.934;2023-08-06T00:04:14;3.70;;;3.40;;
4317;SDS011;2172;53.576;9.934;2023-08-06T00:06:42;4.20;;;2.90;;
4317;SDS011;2172;53.576;9.934;2023-08-06T00:09:09;3.87;;;3.57;;
4317;SDS011;2172;53.576;9.934;2023-08-06T00:11:38;4.63;;;3.20;;
4317;SDS011;2172;53.576;9.934;2023-08-06T00:14:08;4.07;;;3.23;;
4317;SDS011;2172;53.576;9.934;2023-08-06T00:16:35;3.30;;;3.00;;
4317;SDS011;2172;53.576;9.934;2023-08-06T00:19:04;4.07;;;3.77;;
4317;SDS011;2172;53.576;9.934;2023-08-06T00:21:32;3.80;;;3.50;;
4317;SDS011;2172;53.576;9.934;2023-08-06T00:24:00;3.83;;;3.43;;
4317;SDS011;2172;53.576;9.934;2023-08-06T00:26:27;4.30;;;3.80;;
4317;SDS011;2172;53.576;9.934;2023-08-06T00:28:55;3.67;;;3.37;;
4317;SDS011;2172;53.576;9.934;2023-08-06T00:31:23;5.30;;;3.77;;
4317;SDS011;2172;53.576;9.934;2023-08-06T00:33:51;5.17;;;3.93;;
4317;SDS011;2172;53.576;9.934;2023-08-06T00:36:19;5.47;;;3.63;;
4317;SDS011;2172;53.576;9.934;2023-08-06T00:38:46;4.50;;;4.10;;
4317;SDS011;2172;53.576;9.934;2023-08-06T00:41:14;4.60;;;4.10;;
4317;SDS011;2172;53.576;9.934;2023-08-06T00:43:41;5.40;;;4.90;;
4317;SDS011;2172;53.576;9.934;2023-08-06T00:46:10;7.37;;;5.07;;
4317;SDS011;2172;53.576;9.934;2023-08-06T00:48:40;5.73;;;4.60;;
4317;SDS011;2172;53.576;9.934;2023-08-06T00:51:09;4.83;;;4.33;;
4317;SDS011;2172;53.576;9.934;2023-08-06T00:53:37;4.43;;;4.13;;
4317;SDS011;2172;53.576;9.934;2023-08-06T00:56:05;5.23;;;4.83;;
4317;SDS011;2172;53.576;9.934;2023-08-06T00:58:33;4.30;;;3.90;;
4317;SDS011;2172;53.576;9.934;2023-08-06T01:01:01;4.50;;;4.10;;
4317;SDS011;2172;53.576;9.934;2023-08-06T01:03:28;5.00;;;4.60;;
4317;SDS011;2172;53.576;9.934;2023-08-06T01:05:57;5.30;;;4.80;;
4317;SDS011;2172;53.576;9.934;2023-08-06T01:08:28;5.23;;;4.73;;
4317;SDS011;2172;53.576;9.934;2023-08-06T01:11:05;5.60;;;5.10;;
4317;SDS011;2172;53.576;9.934;2023-08-06T01:13:41;4.50;;;4.10;;
4317;SDS011;2172;53.576;9.934;2023-08-06T01:16:12;5.57;;;5.07;;
4317;SDS011;2172;53.576;9.934;2023-08-06T01:18:40;4.73;;;4.33;;
4317;SDS011;2172;53.576;9.934;2023-08-06T01:21:13;5.90;;;5.07;;
4317;SDS011;2172;53.576;9.934;2023-08-06T01:23:41;5.87;;;5.27;;
4317;SDS011;2172;53.576;9.934;2023-08-06T01:26:11;5.83;;;5.20;;
4317;SDS011;2172;53.576;9.934;2023-08-06T01:28:44;6.27;;;5.70;;
4317;SDS011;2172;53.576;9.934;2023-08-06T01:31:18;5.63;;;5.10;;
4317;SDS011;2172;53.576;9.934;2023-08-06T01:33:48;6.03;;;5.53;;
4317;SDS011;2172;53.576;9.934;2023-08-06T01:36:17;5.83;;;5.33;;
4317;SDS011;2172;53.576;9.934;2023-08-06T01:38:46;6.57;;;5.97;;
4317;SDS011;2172;53.576;9.934;2023-08-06T01:41:13;6.20;;;5.60;;
4317;SDS011;2172;53.576;9.934;2023-08-06T01:43:41;6.00;;;5.40;;
4317;SDS011;2172;53.576;9.934;2023-08-06T01:46:10;7.10;;;6.03;;
4317;SDS011;2172;53.576;9.934;2023-08-06T01:48:37;6.20;;;5.60;;
4317;SDS011;2172;53.576;9.934;2023-08-06T01:51:05;6.43;;;5.83;;
4317;SDS011;2172;53.576;9.934;2023-08-06T01:53:34;5.87;;;5.30;;
4317;SDS011;2172;53.576;9.934;2023-08-06T01:56:01;6.40;;;5.80;;
4317;SDS011;2172;53.576;9.934;2023-08-06T01:58:29;6.00;;;5.50;;
4317;SDS011;2172;53.576;9.934;2023-08-06T02:00:57;6.90;;;5.97;;
4317;SDS011;2172;53.576;9.934;2023-08-06T02:03:24;7.80;;;6.23;;
4317;SDS011;2172;53.576;9.934;2023-08-06T02:05:52;7.33;;;6.50;;
4317;SDS011;2172;53.576;9.934;2023-08-06T02:08:19;6.90;;;6.30;;
4317;SDS011;2172;53.576;9.934;2023-08-06T02:10:48;7.47;;;6.20;;
4317;SDS011;2172;53.576;9.934;2023-08-06T02:13:16;8.20;;;6.53;;
4317;SDS011;2172;53.576;9.934;2023-08-06T02:15:44;6.40;;;5.80;;
4317;SDS011;2172;53.576;9.934;2023-08-06T02:18:13;8.13;;;6.10;;
4317;SDS011;2172;53.576;9.934;2023-08-06T02:20:40;5.97;;;5.37;;
4317;SDS011;2172;53.576;9.934;2023-08-06T02:23:08;7.27;;;6.17;;
4317;SDS011;2172;53.576;9.934;2023-08-06T02:25:35;6.67;;;6.07;;
4317;SDS011;2172;53.576;9.934;2023-08-06T02:28:04;7.13;;;6.23;;
4317;SDS011;2172;53.576;9.934;2023-08-06T02:30:31;7.33;;;6.63;;
4317;SDS011;2172;53.576;9.934;2023-08-06T02:32:59;6.27;;;5.67;;
4317;SDS011;2172;53.576;9.934;2023-08-06T02:35:26;6.67;;;5.97;;
4317;SDS011;2172;53.576;9.934;2023-08-06T02:37:54;7.23;;;6.53;;
4317;SDS011;2172;53.576;9.934;2023-08-06T02:40:21;9.97;;;7.30;;
4317;SDS011;2172;53.576;9.934;2023-08-06T02:42:49;7.37;;;6.47;;
4317;SDS011;2172;53.576;9.934;2023-08-06T02:45:18;6.83;;;6.17;;
4317;SDS011;2172;53.576;9.934;2023-08-06T02:47:46;8.67;;;6.80;;
4317;SDS011;2172;53.576;9.934;2023-08-06T02:50:13;7.53;;;6.50;;
4317;SDS011;2172;53.576;9.934;2023-08-06T02:52:41;7.83;;;6.93;;
4317;SDS011;2172;53.576;9.934;2023-08-06T02:55:09;7.23;;;6.53;;
4317;SDS011;2172;53.576;9.934;2023-08-06T02:57:41;8.03;;;7.23;;
4317;SDS011;2172;53.576;9.934;2023-08-06T03:00:09;9.17;;;7.00;;
4317;SDS011;2172;53.576;9.934;2023-08-06T03:02:39;7.50;;;6.57;;
4317;SDS011;2172;53.576;9.934;2023-08-06T03:05:23;8.03;;;6.60;;
4317;SDS011;2172;53.576;9.934;2023-08-06T03:07:50;7.10;;;6.33;;
4317;SDS011;2172;53.576;9.934;2023-08-06T03:10:22;6.83;;;6.23;;
4317;SDS011;2172;53.576;9.934;2023-08-06T03:12:52;8.90;;;6.90;;
4317;SDS011;2172;53.576;9.934;2023-08-06T03:15:21;7.57;;;6.87;;
4317;SDS011;2172;53.576;9.934;2023-08-06T03:17:51;7.90;;;7.13;;
4317;SDS011;2172;53.576;9.934;2023-08-06T03:20:20;8.23;;;7.43;;
4317;SDS011;2172;53.576;9.934;2023-08-06T03:22:48;7.73;;;6.93;;
4317;SDS011;2172;53.576;9.934;2023-08-06T03:25:17;8.70;;;6.80;;
4317;SDS011;2172;53.576;9.934;2023-08-06T03:27:47;8.00;;;7.03;;
4317;SDS011;2172;53.576;9.934;2023-08-06T03:30:17;7.43;;;6.07;;
4317;SDS011;2172;53.576;9.934;2023-08-06T03:32:46;7.03;;;6.43;;
4317;SDS011;2172;53.576;9.934;2023-08-06T03:35:18;8.70;;;7.10;;
4317;SDS011;2172;53.576;9.934;2023-08-06T03:37:47;8.23;;;7.00;;
4317;SDS011;2172;53.576;9.934;2023-08-06T03:40:15;6.87;;;6.17;;
4317;SDS011;2172;53.576;9.934;2023-08-06T03:42:43;8.67;;;6.70;;
4317;SDS011;2172;53.576;9.934;2023-08-06T03:45:10;8.07;;;6.43;;
4317;SDS011;2172;53.576;9.934;2023-08-06T03:47:40;8.30;;;6.77;;
4317;SDS011;2172;53.576;9.934;2023-08-06T03:50:08;7.93;;;6.77;;
4317;SDS011;2172;53.576;9.934;2023-08-06T03:52:37;8.23;;;7.40;;
4317;SDS011;2172;53.576;9.934;2023-08-06T03:55:05;7.73;;;6.97;;
4317;SDS011;2172;53.576;9.934;2023-08-06T03:57:33;7.53;;;6.57;;
4317;SDS011;2172;53.576;9.934;2023-08-06T04:00:00;8.20;;;6.50;;
4317;SDS011;2172;53.576;9.934;2023-08-06T04:02:40;7.00;;;6.40;;
4317;SDS011;2172;53.576;9.934;2023-08-06T04:05:09;7.93;;;6.90;;
4317;SDS011;2172;53.576;9.934;2023-08-06T04:07:38;9.87;;;7.20;;
4317;SDS011;2172;53.576;9.934;2023-08-06T04:10:06;9.30;;;6.30;;
4317;SDS011;2172;53.576;9.934;2023-08-06T04:12:34;7.13;;;6.43;;
4317;SDS011;2172;53.576;9.934;2023-08-06T04:15:04;7.43;;;6.63;;
4317;SDS011;2172;53.576;9.934;2023-08-06T04:17:33;8.00;;;6.60;;
4317;SDS011;2172;53.576;9.934;2023-08-06T04:20:01;9.43;;;6.27;;
4317;SDS011;2172;53.576;9.934;2023-08-06T04:22:29;7.67;;;6.90;;
4317;SDS011;2172;53.576;9.934;2023-08-06T04:25:00;11.50;;;6.30;;
4317;SDS011;2172;53.576;9.934;2023-08-06T04:27:29;8.53;;;6.97;;
4317;SDS011;2172;53.576;9.934;2023-08-06T04:29:57;8.57;;;6.23;;
4317;SDS011;2172;53.576;9.934;2023-08-06T04:32:25;6.70;;;5.90;;
4317;SDS011;2172;53.576;9.934;2023-08-06T04:34:55;6.77;;;6.13;;
4317;SDS011;2172;53.576;9.934;2023-08-06T04:37:23;10.33;;;6.77;;
4317;SDS011;2172;53.576;9.934;2023-08-06T04:39:51;10.40;;;6.80;;
4317;SDS011;2172;53.576;9.934;2023-08-06T04:42:20;8.70;;;6.47;;
4317;SDS011;2172;53.576;9.934;2023-08-06T04:44:47;7.53;;;6.30;;
4317;SDS011;2172;53.576;9.934;2023-08-06T04:47:15;7.77;;;6.80;;
4317;SDS011;2172;53.576;9.934;2023-08-06T04:49:42;8.73;;;6.30;;
4317;SDS011;2172;53.576;9.934;2023-08-06T04:52:12;11.23;;;7.60;;
4317;SDS011;2172;53.576;9.934;2023-08-06T04:54:39;7.50;;;6.67;;
4317;SDS011;2172;53.576;9.934;2023-08-06T04:57:07;7.53;;;6.70;;
4317;SDS011;2172;53.576;9.934;2023-08-06T04:59:36;7.80;;;6.43;;
4317;SDS011;2172;53.576;9.934;2023-08-06T05:02:04;8.70;;;6.80;;
4317;SDS011;2172;53.576;9.934;2023-08-06T05:04:31;9.80;;;7.20;;
4317;SDS011;2172;53.576;9.934;2023-08-06T05:06:59;8.97;;;7.10;;
4317;SDS011;2172;53.576;9.934;2023-08-06T05:09:27;9.60;;;7.00;;
4317;SDS011;2172;53.576;9.934;2023-08-06T05:11:55;7.37;;;6.67;;
4317;SDS011;2172;53.576;9.934;2023-08-06T05:14:22;8.20;;;6.10;;
4317;SDS011;2172;53.576;9.934;2023-08-06T05:16:51;12.73;;;7.33;;
4317;SDS011;2172;53.576;9.934;2023-08-06T05:19:19;8.90;;;6.50;;
4317;SDS011;2172;53.576;9.934;2023-08-06T05:21:46;8.10;;;6.73;;
4317;SDS011;2172;53.576;9.934;2023-08-06T05:24:14;8.37;;;7.33;;
4317;SDS011;2172;53.576;9.934;2023-08-06T05:26:41;11.93;;;6.73;;
4317;SDS011;2172;53.576;9.934;2023-08-06T05:29:11;12.23;;;6.80;;
4317;SDS011;2172;53.576;9.934;2023-08-06T05:31:39;8.00;;;6.63;;
4317;SDS011;2172;53.576;9.934;2023-08-06T05:34:08;10.00;;;7.17;;
4317;SDS011;2172;53.576;9.934;2023-08-06T05:36:35;7.60;;;6.70;;
4317;SDS011;2172;53.576;9.934;2023-08-06T05:39:03;7.70;;;6.83;;
4317;SDS011;2172;53.576;9.934;2023-08-06T05:41:30;8.87;;;7.17;;
4317;SDS011;2172;53.576;9.934;2023-08-06T05:43:58;10.23;;;7.10;;
4317;SDS011;2172;53.576;9.934;2023-08-06T05:46:25;8.47;;;6.90;;
4317;SDS011;2172;53.576;9.934;2023-08-06T05:48:53;10.60;;;6.87;;
4317;SDS011;2172;53.576;9.934;2023-08-06T05:51:22;7.50;;;6.60;;
4317;SDS011;2172;53.576;9.934;2023-08-06T05:53:49;9.33;;;7.17;;
4317;SDS011;2172;53.576;9.934;2023-08-06T05:56:17;11.40;;;7.20;;
4317;SDS011;2172;53.576;9.934;2023-08-06T05:58:44;9.20;;;7.10;;
4317;SDS011;2172;53.576;9.934;2023-08-06T06:01:12;9.70;;;7.50;;
4317;SDS011;2172;53.576;9.934;2023-08-06T06:03:40;11.80;;;7.87;;
4317;SDS011;2172;53.576;9.934;2023-08-06T06:06:07;8.87;;;7.37;;
4317;SDS011;2172;53.576;9.934;2023-08-06T06:08:36;12.53;;;7.07;;
4317;SDS011;2172;53.576;9.934;2023-08-06T06:11:04;9.03;;;7.40;;
4317;SDS011;2172;53.576;9.934;2023-08-06T06:13:31;9.30;;;7.73;;
4317;SDS011;2172;53.576;9.934;2023-08-06T06:15:59;12.70;;;7.50;;
4317;SDS011;2172;53.576;9.934;2023-08-06T06:18:26;7.80;;;6.67;;
4317;SDS011;2172;53.576;9.934;2023-08-06T06:20:54;11.00;;;7.23;;
4317;SDS011;2172;53.576;9.934;2023-08-06T06:23:21;7.67;;;6.67;;
4317;SDS011;2172;53.576;9.934;2023-08-06T06:25:50;10.80;;;7.83;;
4317;SDS011;2172;53.576;9.934;2023-08-06T06:28:18;12.13;;;7.80;;
4317;SDS011;2172;53.576;9.934;2023-08-06T06:30:46;7.93;;;7.13;;
4317;SDS011;2172;53.576;9.934;2023-08-06T06:33:14;9.90;;;7.70;;
4317;SDS011;2172;53.576;9.934;2023-08-06T06:35:41;9.80;;;8.10;;
4317;SDS011;2172;53.576;9.934;2023-08-06T06:38:09;10.20;;;8.10;;
4317;SDS011;2172;53.576;9.934;2023-08-06T06:40:36;10.50;;;8.00;;
4317;SDS011;2172;53.576;9.934;2023-08-06T06:43:05;9.43;;;8.10;;
4317;SDS011;2172;53.576;9.934;2023-08-06T06:45:33;9.30;;;6.90;;
4317;SDS011;2172;53.576;9.934;2023-08-06T06:48:00;12.70;;;8.20;;
4317;SDS011;2172;53.576;9.934;2023-08-06T06:50:28;11.03;;;8.00;;
4317;SDS011;2172;53.576;9.934;2023-08-06T06:52:55;10.70;;;8.07;;
4317;SDS011;2172;53.576;9.934;2023-08-06T06:55:23;11.20;;;8.00;;
4317;SDS011;2172;53.576;9.934;2023-08-06T06:57:50;8.90;;;7.90;;
4317;SDS011;2172;53.576;9.934;2023-08-06T07:00:19;11.70;;;8.30;;
4317;SDS011;2172;53.576;9.934;2023-08-06T07:02:47;9.87;;;8.13;;
4317;SDS011;2172;53.576;9.934;2023-08-06T07:05:14;11.07;;;8.37;;
4317;SDS011;2172;53.576;9.934;2023-08-06T07:07:42;10.97;;;8.40;;
4317;SDS011;2172;53.576;9.934;2023-08-06T07:10:09;12.63;;;8.67;;
4317;SDS011;2172;53.576;9.934;2023-08-06T07:12:37;9.23;;;7.50;;
4317;SDS011;2172;53.576;9.934;2023-08-06T07:15:05;10.90;;;9.53;;
4317;SDS011;2172;53.576;9.934;2023-08-06T07:17:35;9.50;;;8.17;;
4317;SDS011;2172;53.576;9.934;2023-08-06T07:20:03;9.60;;;8.10;;
4317;SDS011;2172;53.576;9.934;2023-08-06T07:22:32;10.73;;;8.40;;
4317;SDS011;2172;53.576;9.934;2023-08-06T07:24:59;12.97;;;8.70;;
4317;SDS011;2172;53.576;9.934;2023-08-06T07:27:27;9.80;;;8.30;;
4317;SDS011;2172;53.576;9.934;2023-08-06T07:29:54;12.87;;;9.00;;
4317;SDS011;2172;53.576;9.934;2023-08-06T07:32:23;13.90;;;8.43;;
4317;SDS011;2172;53.576;9.934;2023-08-06T07:34:52;11.50;;;8.47;;
4317;SDS011;2172;53.576;9.934;2023-08-06T07:37:24;13.30;;;7.77;;
4317;SDS011;2172;53.576;9.934;2023-08-06T07:39:53;9.90;;;7.73;;
4317;SDS011;2172;53.576;9.934;2023-08-06T07:42:21;11.00;;;7.70;;
4317;SDS011;2172;53.576;9.934;2023-08-06T07:44:50;12.80;;;7.50;;
4317;SDS011;2172;53.576;9.934;2023-08-06T07:47:18;12.27;;;8.03;;
4317;SDS011;2172;53.576;9.934;2023-08-06T07:49:46;9.23;;;8.20;;
4317;SDS011;2172;53.576;9.934;2023-08-06T07:52:15;10.30;;;8.03;;
4317;SDS011;2172;53.576;9.934;2023-08-06T07:54:42;8.33;;;7.53;;
4317;SDS011;2172;53.576;9.934;2023-08-06T07:57:10;8.33;;;7.53;;
4317;SDS011;2172;53.576;9.934;2023-08-06T07:59:39;10.27;;;8.23;;
4317;SDS011;2172;53.576;9.934;2023-08-06T08:02:07;12.30;;;8.13;;
4317;SDS011;2172;53.576;9.934;2023-08-06T08:04:34;9.77;;;7.40;;
4317;SDS011;2172;53.576;9.934;2023-08-06T08:07:02;10.77;;;7.77;;
4317;SDS011;2172;53.576;9.934;2023-08-06T08:09:34;11.10;;;8.20;;
4317;SDS011;2172;53.576;9.934;2023-08-06T08:12:02;10.60;;;7.60;;
4317;SDS011;2172;53.576;9.934;2023-08-06T08:14:29;9.37;;;8.40;;
4317;SDS011;2172;53.576;9.934;2023-08-06T08:17:01;8.90;;;8.00;;
4317;SDS011;2172;53.576;9.934;2023-08-06T08:19:28;9.47;;;7.90;;
4317;SDS011;2172;53.576;9.934;2023-08-06T08:21:56;10.33;;;8.90;;
4317;SDS011;2172;53.576;9.934;2023-08-06T08:24:23;10.40;;;8.00;;
4317;SDS011;2172;53.576;9.934;2023-08-06T08:26:53;13.20;;;9.70;;
4317;SDS011;2172;53.576;9.934;2023-08-06T08:29:20;9.40;;;8.37;;
4317;SDS011;2172;53.576;9.934;2023-08-06T08:31:49;10.40;;;8.87;;
4317;SDS011;2172;53.576;9.934;2023-08-06T08:34:17;9.83;;;8.80;;
4317;SDS011;2172;53.576;9.934;2023-08-06T08:36:45;13.77;;;8.33;;
4317;SDS011;2172;53.576;9.934;2023-08-06T08:39:13;12.13;;;8.33;;
4317;SDS011;2172;53.576;9.934;2023-08-06T08:41:40;11.70;;;7.93;;
4317;SDS011;2172;53.576;9.934;2023-08-06T08:44:09;12.97;;;8.10;;
4317;SDS011;2172;53.576;9.934;2023-08-06T08:46:38;10.27;;;7.23;;
4317;SDS011;2172;53.576;9.934;2023-08-06T08:49:07;9.20;;;8.20;;
4317;SDS011;2172;53.576;9.934;2023-08-06T08:51:34;12.20;;;8.40;;
4317;SDS011;2172;53.576;9.934;2023-08-06T08:54:03;10.17;;;7.33;;
4317;SDS011;2172;53.576;9.934;2023-08-06T08:56:33;11.50;;;7.50;;
4317;SDS011;2172;53.576;9.934;2023-08-06T08:59:01;9.70;;;7.90;;
4317;SDS011;2172;53.576;9.934;2023-08-06T09:01:30;8.70;;;7.83;;
4317;SDS011;2172;53.576;9.934;2023-08-06T09:03:57;10.50;;;8.03;;
4317;SDS011;2172;53.576;9.934;2023-08-06T09:06:25;10.27;;;7.53;;
4317;SDS011;2172;53.576;9.934;2023-08-06T09:08:54;8.17;;;7.43;;
4317;SDS011;2172;53.576;9.934;2023-08-06T09:11:27;9.70;;;7.97;;
4317;SDS011;2172;53.576;9.934;2023-08-06T09:13:56;9.87;;;8.00;;
4317;SDS011;2172;53.576;9.934;2023-08-06T09:16:26;10.83;;;8.50;;
4317;SDS011;2172;53.576;9.934;2023-08-06T09:18:55;12.90;;;8.20;;
4317;SDS011;2172;53.576;9.934;2023-08-06T09:21:33;12.33;;;8.80;;
4317;SDS011;2172;53.576;9.934;2023-08-06T09:24:06;9.17;;;8.27;;
4317;SDS011;2172;53.576;9.934;2023-08-06T09:26:36;9.40;;;8.40;;
4317;SDS011;2172;53.576;9.934;2023-08-06T09:29:04;10.07;;;9.00;;
4317;SDS011;2172;53.576;9.934;2023-08-06T09:31:33;10.27;;;9.10;;
4317;SDS011;2172;53.576;9.934;2023-08-06T09:34:09;9.87;;;8.80;;
4317;SDS011;2172;53.576;9.934;2023-08-06T09:36:39;10.73;;;9.63;;
4317;SDS011;2172;53.576;9.934;2023-08-06T09:39:12;10.43;;;9.23;;
4317;SDS011;2172;53.576;9.934;2023-08-06T09:41:40;12.70;;;9.53;;
4317;SDS011;2172;53.576;9.934;2023-08-06T09:44:13;10.73;;;9.60;;
4317;SDS011;2172;53.576;9.934;2023-08-06T09:46:46;11.77;;;8.77;;
4317;SDS011;2172;53.576;9.934;2023-08-06T09:49:17;10.53;;;9.27;;
4317;SDS011;2172;53.576;9.934;2023-08-06T09:51:45;11.40;;;8.70;;
4317;SDS011;2172;53.576;9.934;2023-08-06T09:54:16;10.37;;;9.00;;
4317;SDS011;2172;53.576;9.934;2023-08-06T09:56:44;9.80;;;8.90;;
4317;SDS011;2172;53.576;9.934;2023-08-06T09:59:11;10.00;;;9.00;;
4317;SDS011;2172;53.576;9.934;2023-08-06T10:01:41;13.73;;;8.80;;
4317;SDS011;2172;53.576;9.934;2023-08-06T10:04:08;10.40;;;9.03;;
4317;SDS011;2172;53.576;9.934;2023-08-06T10:06:38;9.77;;;8.70;;
4317;SDS011;2172;53.576;9.934;2023-08-06T10:09:07;9.53;;;8.50;;
4317;SDS011;2172;53.576;9.934;2023-08-06T10:11:35;9.67;;;8.60;;
4317;SDS011;2172;53.576;9.934;2023-08-06T10:14:04;9.50;;;8.50;;
4317;SDS011;2172;53.576;9.934;2023-08-06T10:16:35;10.87;;;9.77;;
4317;SDS011;2172;53.576;9.934;2023-08-06T10:19:03;9.80;;;8.10;;
4317;SDS011;2172;53.576;9.934;2023-08-06T10:21:31;11.03;;;9.00;;
4317;SDS011;2172;53.576;9.934;2023-08-06T10:24:00;11.20;;;9.40;;
4317;SDS011;2172;53.576;9.934;2023-08-06T10:26:29;10.07;;;8.00;;
4317;SDS011;2172;53.576;9.934;2023-08-06T10:28:57;12.10;;;8.60;;
4317;SDS011;2172;53.576;9.934;2023-08-06T10:34:25;9.23;;;8.30;;
4317;SDS011;2172;53.576;9.934;2023-08-06T10:36:59;9.43;;;8.53;;
4317;SDS011;2172;53.576;9.934;2023-08-06T10:39:30;9.60;;;8.47;;
4317;SDS011;2172;53.576;9.934;2023-08-06T10:41:58;12.07;;;8.70;;
4317;SDS011;2172;53.576;9.934;2023-08-06T10:44:25;8.93;;;8.10;;
4317;SDS011;2172;53.576;9.934;2023-08-06T10:46:53;10.07;;;9.00;;
4317;SDS011;2172;53.576;9.934;2023-08-06T10:49:20;10.07;;;8.73;;
4317;SDS011;2172;53.576;9.934;2023-08-06T10:51:48;8.83;;;7.93;;
4317;SDS011;2172;53.576;9.934;2023-08-06T10:54:16;9.20;;;7.77;;
4317;SDS011;2172;53.576;9.934;2023-08-06T10:56:45;11.17;;;8.40;;
4317;SDS011;2172;53.576;9.934;2023-08-06T10:59:14;11.00;;;7.90;;
4317;SDS011;2172;53.576;9.934;2023-08-06T11:01:42;8.70;;;7.80;;
4317;SDS011;2172;53.576;9.934;2023-08-06T11:04:10;9.83;;;8.20;;
4317;SDS011;2172;53.576;9.934;2023-08-06T11:06:42;8.73;;;8.00;;
4317;SDS011;2172;53.576;9.934;2023-08-06T11:09:09;10.30;;;8.57;;
4317;SDS011;2172;53.576;9.934;2023-08-06T11:11:37;10.00;;;9.00;;
4317;SDS011;2172;53.576;9.934;2023-08-06T11:14:06;9.23;;;8.43;;
4317;SDS011;2172;53.576;9.934;2023-08-06T11:16:33;8.73;;;7.90;;
4317;SDS011;2172;53.576;9.934;2023-08-06T11:19:01;11.20;;;8.80;;
4317;SDS011;2172;53.576;9.934;2023-08-06T11:21:29;9.07;;;7.90;;
4317;SDS011;2172;53.576;9.934;2023-08-06T11:23:57;9.40;;;8.50;;
4317;SDS011;2172;53.576;9.934;2023-08-06T11:26:25;9.00;;;8.23;;
4317;SDS011;2172;53.576;9.934;2023-08-06T11:28:53;8.40;;;7.60;;
4317;SDS011;2172;53.576;9.934;2023-08-06T11:31:23;9.97;;;9.07;;
4317;SDS011;2172;53.576;9.934;2023-08-06T11:33:50;9.77;;;8.80;;
4317;SDS011;2172;53.576;9.934;2023-08-06T11:36:28;9.23;;;8.30;;
4317;SDS011;2172;53.576;9.934;2023-08-06T11:38:56;9.53;;;8.73;;
4317;SDS011;2172;53.576;9.934;2023-08-06T11:41:24;9.37;;;8.40;;
4317;SDS011;2172;53.576;9.934;2023-08-06T11:43:52;8.53;;;7.83;;
4317;SDS011;2172;53.576;9.934;2023-08-06T11:46:19;8.43;;;7.77;;
4317;SDS011;2172;53.576;9.934;2023-08-06T11:48:54;8.83;;;7.93;;
4317;SDS011;2172;53.576;9.934;2023-08-06T11:51:23;10.17;;;9.27;;
4317;SDS011;2172;53.576;9.934;2023-08-06T11:53:51;8.73;;;7.93;;
4317;SDS011;2172;53.576;9.934;2023-08-06T11:56:20;9.53;;;8.63;;
4317;SDS011;2172;53.576;9.934;2023-08-06T11:58:48;8.70;;;7.90;;
4317;SDS011;2172;53.576;9.934;2023-08-06T12:01:16;8.60;;;7.80;;
4317;SDS011;2172;53.576;9.934;2023-08-06T12:03:43;10.00;;;8.93;;
4317;SDS011;2172;53.576;9.934;2023-08-06T12:06:12;9.17;;;8.37;;
4317;SDS011;2172;53.576;9.934;2023-08-06T12:08:40;9.47;;;8.63;;
4317;SDS011;2172;53.576;9.934;2023-08-06T12:11:08;9.47;;;8.57;;
4317;SDS011;2172;53.576;9.934;2023-08-06T12:13:35;10.40;;;8.63;;
4317;SDS011;2172;53.576;9.934;2023-08-06T12:16:03;9.30;;;8.30;;
4317;SDS011;2172;53.576;9.934;2023-08-06T12:18:30;9.67;;;8.77;;
4317;SDS011;2172;53.576;9.934;2023-08-06T12:21:00;9.47;;;7.80;;
4317;SDS011;2172;53.576;9.934;2023-08-06T12:23:29;9.47;;;8.67;;
4317;SDS011;2172;53.576;9.934;2023-08-06T12:25:58;12.40;;;9.60;;
4317;SDS011;2172;53.576;9.934;2023-08-06T12:28:26;10.17;;;9.10;;
4317;SDS011;2172;53.576;9.934;2023-08-06T12:30:53;9.47;;;8.57;;
4317;SDS011;2172;53.576;9.934;2023-08-06T12:33:21;9.90;;;8.90;;
4317;SDS011;2172;53.576;9.934;2023-08-06T12:35:51;8.83;;;7.80;;
4317;SDS011;2172;53.576;9.934;2023-08-06T12:38:20;11.90;;;8.50;;
4317;SDS011;2172;53.576;9.934;2023-08-06T12:40:49;9.53;;;8.53;;
4317;SDS011;2172;53.576;9.934;2023-08-06T12:43:16;10.07;;;9.17;;
4317;SDS011;2172;53.576;9.934;2023-08-06T12:45:45;9.80;;;8.80;;
4317;SDS011;2172;53.576;9.934;2023-08-06T12:48:14;12.20;;;9.30;;
4317;SDS011;2172;53.576;9.934;2023-08-06T12:50:41;8.80;;;7.90;;
4317;SDS011;2172;53.576;9.934;2023-08-06T12:53:10;8.33;;;7.53;;
4317;SDS011;2172;53.576;9.934;2023-08-06T12:55:38;8.80;;;7.90;;
4317;SDS011;2172;53.576;9.934;2023-08-06T12:58:07;7.77;;;7.07;;
4317;SDS011;2172;53.576;9.934;2023-08-06T13:00:34;8.73;;;7.77;;
4317;SDS011;2172;53.576;9.934;2023-08-06T13:03:02;7.77;;;7.07;;
4317;SDS011;2172;53.576;9.934;2023-08-06T13:05:30;7.87;;;7.13;;
4317;SDS011;2172;53.576;9.934;2023-08-06T13:07:58;8.17;;;7.13;;
4317;SDS011;2172;53.576;9.934;2023-08-06T13:10:25;8.57;;;7.77;;
4317;SDS011;2172;53.576;9.934;2023-08-06T13:12:54;10.23;;;8.00;;
4317;SDS011;2172;53.576;9.934;2023-08-06T13:15:23;8.70;;;7.47;;
4317;SDS011;2172;53.576;9.934;2023-08-06T13:17:50;7.90;;;7.10;;
4317;SDS011;2172;53.576;9.934;2023-08-06T13:20:18;8.30;;;7.50;;
4317;SDS011;2172;53.576;9.934;2023-08-06T13:22:48;7.30;;;6.60;;
4317;SDS011;2172;53.576;9.934;2023-08-06T13:25:18;8.43;;;7.33;;
4317;SDS011;2172;53.576;9.934;2023-08-06T13:27:48;9.00;;;8.10;;
4317;SDS011;2172;53.576;9.934;2023-08-06T13:30:16;8.50;;;7.70;;
4317;SDS011;2172;53.576;9.934;2023-08-06T13:32:45;9.03;;;7.73;;
4317;SDS011;2172;53.576;9.934;2023-08-06T13:35:13;10.47;;;7.13;;
4317;SDS011;2172;53.576;9.934;2023-08-06T13:37:41;8.03;;;7.23;;
4317;SDS011;2172;53.576;9.934;2023-08-06T13:40:09;9.07;;;7.67;;
4317;SDS011;2172;53.576;9.934;2023-08-06T13:42:37;8.33;;;7.50;;
4317;SDS011;2172;53.576;9.934;2023-08-06T13:45:05;7.33;;;6.70;;
4317;SDS011;2172;53.576;9.934;2023-08-06T13:47:33;11.87;;;7.50;;
4317;SDS011;2172;53.576;9.934;2023-08-06T13:50:05;7.80;;;6.47;;
4317;SDS011;2172;53.576;9.934;2023-08-06T13:52:33;7.33;;;6.60;;
4317;SDS011;2172;53.576;9.934;2023-08-06T13:55:01;6.77;;;6.07;;
4317;SDS011;2172;53.576;9.934;2023-08-06T13:57:29;12.23;;;6.67;;
4317;SDS011;2172;53.576;9.934;2023-08-06T13:59:57;7.00;;;6.30;;
4317;SDS011;2172;53.576;9.934;2023-08-06T14:02:24;6.13;;;5.63;;
4317;SDS011;2172;53.576;9.934;2023-08-06T14:04:53;6.53;;;5.83;;
4317;SDS011;2172;53.576;9.934;2023-08-06T14:07:22;6.67;;;6.00;;
4317;SDS011;2172;53.576;9.934;2023-08-06T14:09:49;6.07;;;5.50;;
4317;SDS011;2172;53.576;9.934;2023-08-06T14:12:17;6.90;;;6.30;;
4317;SDS011;2172;53.576;9.934;2023-08-06T14:14:44;7.70;;;5.27;;
4317;SDS011;2172;53.576;9.934;2023-08-06T14:17:12;8.87;;;5.40;;
4317;SDS011;2172;53.576;9.934;2023-08-06T14:19:40;5.13;;;4.63;;
4317;SDS011;2172;53.576;9.934;2023-08-06T14:22:08;6.10;;;4.57;;
4317;SDS011;2172;53.576;9.934;2023-08-06T14:24:39;4.70;;;4.27;;
4317;SDS011;2172;53.576;9.934;2023-08-06T14:27:07;6.33;;;4.13;;
4317;SDS011;2172;53.576;9.934;2023-08-06T14:29:34;5.80;;;4.17;;
4317;SDS011;2172;53.576;9.934;2023-08-06T14:32:02;6.90;;;4.73;;
4317;SDS011;2172;53.576;9.934;2023-08-06T14:34:29;5.10;;;4.57;;
4317;SDS011;2172;53.576;9.934;2023-08-06T14:36:57;7.70;;;4.93;;
4317;SDS011;2172;53.576;9.934;2023-08-06T14:39:25;6.30;;;5.03;;
4317;SDS011;2172;53.576;9.934;2023-08-06T14:41:54;5.30;;;4.80;;
4317;SDS011;2172;53.576;9.934;2023-08-06T14:44:21;6.00;;;4.63;;
4317;SDS011;2172;53.576;9.934;2023-08-06T14:46:49;5.53;;;4.43;;
4317;SDS011;2172;53.576;9.934;2023-08-06T14:49:17;7.40;;;4.90;;
4317;SDS011;2172;53.576;9.934;2023-08-06T14:51:44;6.53;;;4.37;;
4317;SDS011;2172;53.576;9.934;2023-08-06T14:54:11;5.20;;;4.50;;
4317;SDS011;2172;53.576;9.934;2023-08-06T14:56:39;5.67;;;5.07;;
4317;SDS011;2172;53.576;9.934;2023-08-06T14:59:08;5.80;;;4.57;;
4317;SDS011;2172;53.576;9.934;2023-08-06T15:01:35;5.70;;;4.53;;
4317;SDS011;2172;53.576;9.934;2023-08-06T15:04:03;5.57;;;4.90;;
4317;SDS011;2172;53.576;9.934;2023-08-06T15:06:31;5.30;;;4.67;;
4317;SDS011;2172;53.576;9.934;2023-08-06T15:08:58;4.97;;;4.20;;
4317;SDS011;2172;53.576;9.934;2023-08-06T15:11:27;4.80;;;4.13;;
4317;SDS011;2172;53.576;9.934;2023-08-06T15:13:54;4.93;;;4.23;;
4317;SDS011;2172;53.576;9.934;2023-08-06T15:16:23;5.70;;;5.10;;
4317;SDS011;2172;53.576;9.934;2023-08-06T15:18:50;6.67;;;5.10;;
4317;SDS011;2172;53.576;9.934;2023-08-06T15:21:18;5.93;;;5.37;;
4317;SDS011;2172;53.576;9.934;2023-08-06T15:23:46;5.07;;;4.50;;